sensor_id;sensor_type;location;lat;lon;timestamp;pressure;altitude;pressure_sealevel;temperature;humidity
25869;BME280;13688;53.154;18.136;2023-07-13T00:01:38;100529.52;;;15.42;100.00
25869;BME280;13688;53.154;18.136;2023-07-13T00:07:01;100516.77;;;15.35;100.00
25869;BME280;13688;53.154;18.136;2023-07-13T00:12:36;100511.71;;;15.22;100.00
25869;BME280;13688;53.154;18.136;2023-07-13T00:18:00;100514.65;;;15.11;100.00
25869;BME280;13688;53.154;18.136;2023-07-13T00:23:22;100511.94;;;15.11;100.00
25869;BME280;13688;53.154;18.136;2023-07-13T00:28:45;100520.91;;;15.11;100.00
25869;BME280;13688;53.154;18.136;2023-07-13T00:34:08;100521.39;;;15.07;100.00
25869;BME280;13688;53.154;18.136;2023-07-13T00:39:30;100522.47;;;14.96;100.00
25869;BME280;13688;53.154;18.136;2023-07-13T00:50:37;100546.67;;;14.98;100.00
25869;BME280;13688;53.154;18.136;2023-07-13T00:56:01;100545.09;;;14.95;100.00
25869;BME280;13688;53.154;18.136;2023-07-13T01:01:25;100558.63;;;14.95;100.00
25869;BME280;13688;53.154;18.136;2023-07-13T01:06:49;100573.70;;;14.80;100.00
25869;BME280;13688;53.154;18.136;2023-07-13T01:12:12;100581.16;;;14.68;100.00
25869;BME280;13688;53.154;18.136;2023-07-13T01:17:35;100576.75;;;14.67;100.00
25869;BME280;13688;53.154;18.136;2023-07-13T01:22:57;100571.47;;;14.66;100.00
25869;BME280;13688;53.154;18.136;2023-07-13T01:28:23;100556.43;;;14.53;100.00
25869;BME280;13688;53.154;18.136;2023-07-13T01:33:47;100539.50;;;14.51;100.00
25869;BME280;13688;53.154;18.136;2023-07-13T01:39:10;100551.87;;;14.54;100.00
25869;BME280;13688;53.154;18.136;2023-07-13T01:44:33;100557.98;;;14.56;100.00
25869;BME280;13688;53.154;18.136;2023-07-13T01:49:57;100564.62;;;14.71;100.00
25869;BME280;13688;53.154;18.136;2023-07-13T01:55:20;100571.19;;;14.69;100.00
25869;BME280;13688;53.154;18.136;2023-07-13T02:00:43;100587.97;;;14.72;100.00
25869;BME280;13688;53.154;18.136;2023-07-13T02:06:05;100590.09;;;14.78;100.00
25869;BME280;13688;53.154;18.136;2023-07-13T02:11:28;100576.05;;;14.93;100.00
25869;BME280;13688;53.154;18.136;2023-07-13T02:16:50;100579.58;;;15.21;100.00
25869;BME280;13688;53.154;18.136;2023-07-13T02:22:13;100575.73;;;15.41;100.00
25869;BME280;13688;53.154;18.136;2023-07-13T02:27:37;100566.36;;;15.53;100.00
25869;BME280;13688;53.154;18.136;2023-07-13T02:32:59;100554.01;;;15.68;100.00
25869;BME280;13688;53.154;18.136;2023-07-13T02:38:21;100559.64;;;15.57;100.00
25869;BME280;13688;53.154;18.136;2023-07-13T02:43:46;100553.37;;;15.57;100.00
25869;BME280;13688;53.154;18.136;2023-07-13T02:49:10;100551.75;;;15.46;100.00
25869;BME280;13688;53.154;18.136;2023-07-13T02:54:32;100562.50;;;15.38;100.00
25869;BME280;13688;53.154;18.136;2023-07-13T02:59:55;100562.35;;;15.57;100.00
25869;BME280;13688;53.154;18.136;2023-07-13T03:05:19;100552.06;;;15.79;100.00
25869;BME280;13688;53.154;18.136;2023-07-13T03:10:41;100545.42;;;15.73;100.00
25869;BME280;13688;53.154;18.136;2023-07-13T03:16:04;100558.73;;;15.66;100.00
25869;BME280;13688;53.154;18.136;2023-07-13T03:21:28;100544.84;;;15.52;100.00
25869;BME280;13688;53.154;18.136;2023-07-13T03:26:51;100556.88;;;15.67;100.00
25869;BME280;13688;53.154;18.136;2023-07-13T03:32:13;100549.34;;;15.79;100.00
25869;BME280;13688;53.154;18.136;2023-07-13T03:37:36;100558.99;;;15.99;100.00
25869;BME280;13688;53.154;18.136;2023-07-13T03:42:58;100570.92;;;16.06;100.00
25869;BME280;13688;53.154;18.136;2023-07-13T03:48:21;100573.53;;;16.16;100.00
25869;BME280;13688;53.154;18.136;2023-07-13T03:53:45;100578.56;;;16.11;100.00
25869;BME280;13688;53.154;18.136;2023-07-13T03:59:07;100583.80;;;16.04;100.00
25869;BME280;13688;53.154;18.136;2023-07-13T04:04:31;100589.05;;;16.06;100.00
25869;BME280;13688;53.154;18.136;2023-07-13T04:09:53;100602.62;;;16.06;100.00
25869;BME280;13688;53.154;18.136;2023-07-13T04:15:15;100598.56;;;16.10;100.00
25869;BME280;13688;53.154;18.136;2023-07-13T04:20:38;100610.83;;;16.14;100.00
25869;BME280;13688;53.154;18.136;2023-07-13T04:26:00;100616.25;;;16.14;100.00
25869;BME280;13688;53.154;18.136;2023-07-13T04:31:23;100606.25;;;16.14;100.00
25869;BME280;13688;53.154;18.136;2023-07-13T04:36:46;100589.47;;;15.93;100.00
25869;BME280;13688;53.154;18.136;2023-07-13T04:42:08;100602.38;;;15.99;100.00
25869;BME280;13688;53.154;18.136;2023-07-13T04:47:31;100615.83;;;16.26;100.00
25869;BME280;13688;53.154;18.136;2023-07-13T04:52:53;100611.73;;;16.48;100.00
25869;BME280;13688;53.154;18.136;2023-07-13T04:58:16;100632.78;;;16.72;100.00
25869;BME280;13688;53.154;18.136;2023-07-13T05:03:39;100651.23;;;16.69;100.00
25869;BME280;13688;53.154;18.136;2023-07-13T05:09:02;100650.97;;;17.14;100.00
25869;BME280;13688;53.154;18.136;2023-07-13T05:14:24;100657.39;;;17.55;100.00
25869;BME280;13688;53.154;18.136;2023-07-13T05:19:47;100663.69;;;17.48;100.00
25869;BME280;13688;53.154;18.136;2023-07-13T05:25:11;100657.11;;;17.66;100.00
25869;BME280;13688;53.154;18.136;2023-07-13T05:30:33;100664.61;;;17.72;100.00
25869;BME280;13688;53.154;18.136;2023-07-13T05:35:56;100657.19;;;18.15;100.00
25869;BME280;13688;53.154;18.136;2023-07-13T05:41:19;100658.19;;;18.47;100.00
25869;BME280;13688;53.154;18.136;2023-07-13T05:46:41;100677.75;;;18.83;100.00
25869;BME280;13688;53.154;18.136;2023-07-13T05:52:06;100686.20;;;19.04;100.00
25869;BME280;13688;53.154;18.136;2023-07-13T05:57:28;100673.19;;;19.23;100.00
25869;BME280;13688;53.154;18.136;2023-07-13T06:02:51;100667.01;;;19.29;100.00
25869;BME280;13688;53.154;18.136;2023-07-13T06:08:13;100676.41;;;19.65;100.00
25869;BME280;13688;53.154;18.136;2023-07-13T06:13:36;100679.31;;;19.64;100.00
25869;BME280;13688;53.154;18.136;2023-07-13T06:18:58;100668.61;;;19.85;100.00
25869;BME280;13688;53.154;18.136;2023-07-13T06:24:21;100667.76;;;19.85;100.00
25869;BME280;13688;53.154;18.136;2023-07-13T06:29:44;100660.00;;;19.96;100.00
25869;BME280;13688;53.154;18.136;2023-07-13T06:35:07;100663.95;;;19.94;100.00
25869;BME280;13688;53.154;18.136;2023-07-13T06:40:30;100669.41;;;19.94;100.00
25869;BME280;13688;53.154;18.136;2023-07-13T06:45:54;100665.09;;;20.22;100.00
25869;BME280;13688;53.154;18.136;2023-07-13T06:51:17;100679.59;;;20.46;100.00
25869;BME280;13688;53.154;18.136;2023-07-13T06:56:40;100668.66;;;20.46;100.00
25869;BME280;13688;53.154;18.136;2023-07-13T07:02:02;100685.67;;;20.56;100.00
25869;BME280;13688;53.154;18.136;2023-07-13T07:07:25;100695.58;;;20.72;100.00
25869;BME280;13688;53.154;18.136;2023-07-13T07:12:48;100689.22;;;21.24;100.00
25869;BME280;13688;53.154;18.136;2023-07-13T07:18:10;100694.87;;;21.07;100.00
25869;BME280;13688;53.154;18.136;2023-07-13T07:23:33;100699.61;;;21.43;100.00
25869;BME280;13688;53.154;18.136;2023-07-13T07:28:55;100706.02;;;21.86;100.00
25869;BME280;13688;53.154;18.136;2023-07-13T07:34:19;100692.78;;;21.90;100.00
25869;BME280;13688;53.154;18.136;2023-07-13T07:39:44;100685.09;;;22.00;100.00
25869;BME280;13688;53.154;18.136;2023-07-13T07:45:11;100685.05;;;21.93;100.00
25869;BME280;13688;53.154;18.136;2023-07-13T07:50:35;100690.52;;;21.93;99.96
25869;BME280;13688;53.154;18.136;2023-07-13T07:56:00;100692.66;;;21.98;95.73
25869;BME280;13688;53.154;18.136;2023-07-13T08:01:28;100690.57;;;22.00;93.70
25869;BME280;13688;53.154;18.136;2023-07-13T08:06:54;100697.28;;;22.12;86.36
25869;BME280;13688;53.154;18.136;2023-07-13T08:12:18;100707.31;;;22.26;84.90
25869;BME280;13688;53.154;18.136;2023-07-13T08:17:43;100706.95;;;22.57;83.79
25869;BME280;13688;53.154;18.136;2023-07-13T08:23:07;100699.14;;;22.54;79.09
25869;BME280;13688;53.154;18.136;2023-07-13T08:28:33;100695.36;;;22.55;79.02
25869;BME280;13688;53.154;18.136;2023-07-13T08:33:58;100694.41;;;22.91;74.93
25869;BME280;13688;53.154;18.136;2023-07-13T08:39:24;100690.69;;;23.05;73.99
25869;BME280;13688;53.154;18.136;2023-07-13T08:50:25;100679.88;;;23.32;70.71
25869;BME280;13688;53.154;18.136;2023-07-13T08:55:51;100672.22;;;23.21;69.56
25869;BME280;13688;53.154;18.136;2023-07-13T09:01:31;100668.52;;;23.41;69.21
25869;BME280;13688;53.154;18.136;2023-07-13T09:06:56;100680.41;;;23.55;64.35
25869;BME280;13688;53.154;18.136;2023-07-13T09:12:56;100681.04;;;23.16;67.44
25869;BME280;13688;53.154;18.136;2023-07-13T09:18:42;100689.19;;;22.75;75.41
25869;BME280;13688;53.154;18.136;2023-07-13T09:30:07;100687.19;;;21.98;79.58
25869;BME280;13688;53.154;18.136;2023-07-13T09:35:35;100681.75;;;22.41;81.82
25869;BME280;13688;53.154;18.136;2023-07-13T09:41:14;100683.64;;;22.90;69.00
25869;BME280;13688;53.154;18.136;2023-07-13T09:46:34;100681.55;;;23.26;62.19
25869;BME280;13688;53.154;18.136;2023-07-13T09:52:09;100674.08;;;23.55;51.77
25869;BME280;13688;53.154;18.136;2023-07-13T09:57:33;100674.61;;;23.78;53.14
25869;BME280;13688;53.154;18.136;2023-07-13T10:03:18;100666.88;;;24.28;50.58
25869;BME280;13688;53.154;18.136;2023-07-13T10:09:02;100659.28;;;24.23;52.74
25869;BME280;13688;53.154;18.136;2023-07-13T10:14:27;100667.77;;;24.62;51.81
25869;BME280;13688;53.154;18.136;2023-07-13T10:19:52;100647.69;;;24.61;47.94
25869;BME280;13688;53.154;18.136;2023-07-13T10:25:29;100658.00;;;24.13;45.88
25869;BME280;13688;53.154;18.136;2023-07-13T10:30:52;100660.05;;;23.91;45.83
25869;BME280;13688;53.154;18.136;2023-07-13T10:36:34;100662.98;;;23.83;57.72
25869;BME280;13688;53.154;18.136;2023-07-13T10:42:05;100663.91;;;23.49;69.52
25869;BME280;13688;53.154;18.136;2023-07-13T10:47:32;100664.58;;;23.57;71.96
25869;BME280;13688;53.154;18.136;2023-07-13T10:52:55;100656.27;;;23.98;70.55
25869;BME280;13688;53.154;18.136;2023-07-13T11:04:02;100663.48;;;25.12;61.68
25869;BME280;13688;53.154;18.136;2023-07-13T11:09:38;100662.64;;;25.63;58.77
25869;BME280;13688;53.154;18.136;2023-07-13T11:15:12;100652.13;;;24.42;61.88
25869;BME280;13688;53.154;18.136;2023-07-13T11:20:42;100655.88;;;24.28;65.76
25869;BME280;13688;53.154;18.136;2023-07-13T11:26:36;100669.41;;;24.16;70.24
25869;BME280;13688;53.154;18.136;2023-07-13T11:31:43;100662.52;;;25.45;66.92
25869;BME280;13688;53.154;18.136;2023-07-13T11:37:19;100666.06;;;24.41;71.85
25869;BME280;13688;53.154;18.136;2023-07-13T11:42:42;100669.27;;;23.63;79.05
25869;BME280;13688;53.154;18.136;2023-07-13T11:48:04;100667.30;;;24.25;75.86
25869;BME280;13688;53.154;18.136;2023-07-13T11:53:47;100669.23;;;23.57;79.06
25869;BME280;13688;53.154;18.136;2023-07-13T11:59:13;100684.84;;;23.15;82.01
25869;BME280;13688;53.154;18.136;2023-07-13T12:04:38;100680.69;;;22.91;80.36
25869;BME280;13688;53.154;18.136;2023-07-13T12:15:53;100672.43;;;23.60;81.14
25869;BME280;13688;53.154;18.136;2023-07-13T12:21:17;100661.58;;;24.07;76.19
25869;BME280;13688;53.154;18.136;2023-07-13T12:26:39;100657.33;;;23.97;76.28
25869;BME280;13688;53.154;18.136;2023-07-13T12:32:07;100661.14;;;24.10;71.57
25869;BME280;13688;53.154;18.136;2023-07-13T12:37:30;100653.12;;;24.08;68.21
25869;BME280;13688;53.154;18.136;2023-07-13T12:42:55;100647.46;;;24.56;67.57
25869;BME280;13688;53.154;18.136;2023-07-13T12:48:21;100649.89;;;25.24;62.55
25869;BME280;13688;53.154;18.136;2023-07-13T12:53:48;100638.50;;;27.21;50.56
25869;BME280;13688;53.154;18.136;2023-07-13T12:59:19;100629.09;;;27.77;41.45
25869;BME280;13688;53.154;18.136;2023-07-13T13:04:47;100643.87;;;27.16;36.67
25869;BME280;13688;53.154;18.136;2023-07-13T13:10:12;100636.79;;;26.84;37.98
25869;BME280;13688;53.154;18.136;2023-07-13T13:15:36;100646.04;;;26.14;38.55
25869;BME280;13688;53.154;18.136;2023-07-13T13:20:58;100652.55;;;25.50;40.63
25869;BME280;13688;53.154;18.136;2023-07-13T13:26:21;100640.80;;;25.23;40.13
25869;BME280;13688;53.154;18.136;2023-07-13T13:31:44;100629.86;;;23.84;62.86
25869;BME280;13688;53.154;18.136;2023-07-13T13:37:20;100641.13;;;24.55;67.96
25869;BME280;13688;53.154;18.136;2023-07-13T13:42:44;100647.02;;;24.26;70.16
25869;BME280;13688;53.154;18.136;2023-07-13T13:48:18;100643.61;;;23.43;72.97
25869;BME280;13688;53.154;18.136;2023-07-13T13:53:50;100653.97;;;23.00;77.50
25869;BME280;13688;53.154;18.136;2023-07-13T13:59:13;100644.43;;;23.85;74.56
25869;BME280;13688;53.154;18.136;2023-07-13T14:04:35;100647.00;;;24.92;66.76
25869;BME280;13688;53.154;18.136;2023-07-13T14:10:00;100651.44;;;24.93;62.41
25869;BME280;13688;53.154;18.136;2023-07-13T14:15:29;100655.03;;;26.35;61.30
25869;BME280;13688;53.154;18.136;2023-07-13T14:20:53;100649.62;;;26.71;57.80
25869;BME280;13688;53.154;18.136;2023-07-13T14:26:18;100655.09;;;25.45;64.80
25869;BME280;13688;53.154;18.136;2023-07-13T14:31:41;100645.59;;;25.86;65.36
25869;BME280;13688;53.154;18.136;2023-07-13T14:37:04;100645.88;;;26.09;64.75
25869;BME280;13688;53.154;18.136;2023-07-13T14:42:30;100645.71;;;24.95;71.39
25869;BME280;13688;53.154;18.136;2023-07-13T14:47:53;100640.11;;;25.34;69.84
25869;BME280;13688;53.154;18.136;2023-07-13T14:53:17;100628.72;;;26.39;56.20
25869;BME280;13688;53.154;18.136;2023-07-13T14:58:40;100625.94;;;27.07;50.44
25869;BME280;13688;53.154;18.136;2023-07-13T15:04:04;100625.22;;;26.50;46.45
25869;BME280;13688;53.154;18.136;2023-07-13T15:09:29;100626.05;;;27.67;44.05
25869;BME280;13688;53.154;18.136;2023-07-13T15:14:51;100631.20;;;27.93;42.16
25869;BME280;13688;53.154;18.136;2023-07-13T15:20:25;100634.75;;;28.24;39.92
25869;BME280;13688;53.154;18.136;2023-07-13T15:25:47;100632.84;;;27.83;31.13
25869;BME280;13688;53.154;18.136;2023-07-13T15:31:17;100652.03;;;27.59;30.93
25869;BME280;13688;53.154;18.136;2023-07-13T15:36:39;100635.07;;;26.64;32.46
25869;BME280;13688;53.154;18.136;2023-07-13T15:42:01;100620.71;;;27.84;30.33
25869;BME280;13688;53.154;18.136;2023-07-13T15:47:26;100620.81;;;28.19;29.55
25869;BME280;13688;53.154;18.136;2023-07-13T15:52:53;100632.19;;;27.99;29.06
25869;BME280;13688;53.154;18.136;2023-07-13T15:58:19;100625.04;;;27.80;27.54
25869;BME280;13688;53.154;18.136;2023-07-13T16:03:41;100643.96;;;28.06;27.60
25869;BME280;13688;53.154;18.136;2023-07-13T16:09:06;100630.91;;;28.25;28.14
25869;BME280;13688;53.154;18.136;2023-07-13T16:14:32;100630.36;;;27.93;28.85
25869;BME280;13688;53.154;18.136;2023-07-13T16:19:55;100637.59;;;28.06;29.56
25869;BME280;13688;53.154;18.136;2023-07-13T16:25:34;100638.20;;;28.73;29.20
25869;BME280;13688;53.154;18.136;2023-07-13T16:30:58;100638.60;;;28.23;28.86
25869;BME280;13688;53.154;18.136;2023-07-13T16:36:21;100640.00;;;28.02;28.68
25869;BME280;13688;53.154;18.136;2023-07-13T16:41:44;100645.20;;;28.10;28.49
25869;BME280;13688;53.154;18.136;2023-07-13T16:47:12;100637.11;;;28.39;28.40
25869;BME280;13688;53.154;18.136;2023-07-13T16:52:34;100642.98;;;28.31;27.90
25869;BME280;13688;53.154;18.136;2023-07-13T16:57:58;100646.01;;;27.99;28.47
25869;BME280;13688;53.154;18.136;2023-07-13T17:03:22;100648.08;;;28.15;27.25
25869;BME280;13688;53.154;18.136;2023-07-13T17:08:44;100655.73;;;28.43;27.52
25869;BME280;13688;53.154;18.136;2023-07-13T17:14:14;100655.86;;;28.07;28.29
25869;BME280;13688;53.154;18.136;2023-07-13T17:19:43;100657.91;;;28.00;27.60
25869;BME280;13688;53.154;18.136;2023-07-13T17:25:11;100656.76;;;27.89;29.52
25869;BME280;13688;53.154;18.136;2023-07-13T17:30:39;100654.84;;;28.19;28.30
25869;BME280;13688;53.154;18.136;2023-07-13T17:36:10;100652.38;;;28.00;29.04
25869;BME280;13688;53.154;18.136;2023-07-13T17:41:33;100655.44;;;28.21;29.29
25869;BME280;13688;53.154;18.136;2023-07-13T17:46:56;100657.60;;;28.19;30.43
25869;BME280;13688;53.154;18.136;2023-07-13T17:52:19;100665.24;;;27.57;31.11
25869;BME280;13688;53.154;18.136;2023-07-13T17:57:43;100663.30;;;26.85;31.45
25869;BME280;13688;53.154;18.136;2023-07-13T18:03:21;100664.48;;;26.14;33.13
25869;BME280;13688;53.154;18.136;2023-07-13T18:08:50;100671.30;;;25.08;36.23
25869;BME280;13688;53.154;18.136;2023-07-13T18:14:13;100674.92;;;24.23;38.99
25869;BME280;13688;53.154;18.136;2023-07-13T18:19:38;100678.23;;;23.85;39.61
25869;BME280;13688;53.154;18.136;2023-07-13T18:25:03;100676.70;;;23.28;40.72
25869;BME280;13688;53.154;18.136;2023-07-13T18:30:30;100683.55;;;22.83;41.89
25869;BME280;13688;53.154;18.136;2023-07-13T18:35:54;100685.84;;;22.51;43.89
25869;BME280;13688;53.154;18.136;2023-07-13T18:41:22;100683.98;;;22.31;44.18
25869;BME280;13688;53.154;18.136;2023-07-13T18:46:46;100683.23;;;22.00;45.22
25869;BME280;13688;53.154;18.136;2023-07-13T18:52:15;100686.91;;;21.71;45.90
25869;BME280;13688;53.154;18.136;2023-07-13T18:57:36;100690.32;;;21.59;46.55
25869;BME280;13688;53.154;18.136;2023-07-13T19:03:03;100684.98;;;21.36;46.49
25869;BME280;13688;53.154;18.136;2023-07-13T19:08:33;100699.02;;;21.18;47.33
25869;BME280;13688;53.154;18.136;2023-07-13T19:13:57;100706.62;;;20.78;49.77
25869;BME280;13688;53.154;18.136;2023-07-13T19:19:23;100707.41;;;20.49;52.09
25869;BME280;13688;53.154;18.136;2023-07-13T19:24:46;100710.19;;;20.18;54.76
25869;BME280;13688;53.154;18.136;2023-07-13T19:30:10;100714.33;;;19.83;58.00
25869;BME280;13688;53.154;18.136;2023-07-13T19:35:33;100730.90;;;19.34;62.90
25869;BME280;13688;53.154;18.136;2023-07-13T19:40:57;100730.27;;;19.16;61.98
25869;BME280;13688;53.154;18.136;2023-07-13T19:46:32;100736.95;;;19.05;69.62
25869;BME280;13688;53.154;18.136;2023-07-13T19:51:55;100744.83;;;18.76;73.02
25869;BME280;13688;53.154;18.136;2023-07-13T19:57:22;100744.09;;;19.06;68.20
25869;BME280;13688;53.154;18.136;2023-07-13T20:02:47;100750.67;;;19.28;67.51
25869;BME280;13688;53.154;18.136;2023-07-13T20:08:13;100753.56;;;19.35;66.55
25869;BME280;13688;53.154;18.136;2023-07-13T20:13:37;100754.00;;;19.55;66.02
25869;BME280;13688;53.154;18.136;2023-07-13T20:18:59;100749.94;;;19.51;65.53
25869;BME280;13688;53.154;18.136;2023-07-13T20:24:25;100761.25;;;19.31;69.26
25869;BME280;13688;53.154;18.136;2023-07-13T20:29:49;100759.78;;;18.96;72.02
25869;BME280;13688;53.154;18.136;2023-07-13T20:40:47;100771.16;;;18.43;78.77
25869;BME280;13688;53.154;18.136;2023-07-13T20:46:14;100779.66;;;18.15;80.09
25869;BME280;13688;53.154;18.136;2023-07-13T20:51:38;100787.50;;;18.43;75.59
25869;BME280;13688;53.154;18.136;2023-07-13T20:57:02;100795.86;;;19.23;69.21
25869;BME280;13688;53.154;18.136;2023-07-13T21:02:32;100808.71;;;19.69;65.72
25869;BME280;13688;53.154;18.136;2023-07-13T21:07:57;100803.09;;;20.02;62.78
25869;BME280;13688;53.154;18.136;2023-07-13T21:13:20;100799.55;;;19.93;63.07
25869;BME280;13688;53.154;18.136;2023-07-13T21:18:44;100828.27;;;19.81;63.65
25869;BME280;13688;53.154;18.136;2023-07-13T21:24:08;100828.66;;;19.70;64.40
25869;BME280;13688;53.154;18.136;2023-07-13T21:29:32;100821.52;;;19.53;66.14
25869;BME280;13688;53.154;18.136;2023-07-13T21:34:55;100824.45;;;19.35;67.40
25869;BME280;13688;53.154;18.136;2023-07-13T21:40:20;100830.27;;;19.15;68.91
25869;BME280;13688;53.154;18.136;2023-07-13T21:45:44;100811.20;;;18.99;70.41
25869;BME280;13688;53.154;18.136;2023-07-13T21:51:20;100829.11;;;18.85;70.76
25869;BME280;13688;53.154;18.136;2023-07-13T21:56:44;100825.17;;;18.72;71.51
25869;BME280;13688;53.154;18.136;2023-07-13T22:02:14;100823.28;;;18.64;71.46
25869;BME280;13688;53.154;18.136;2023-07-13T22:07:34;100834.14;;;18.48;72.74
25869;BME280;13688;53.154;18.136;2023-07-13T22:12:57;100836.30;;;18.20;75.21
25869;BME280;13688;53.154;18.136;2023-07-13T22:18:23;100850.21;;;18.09;76.01
25869;BME280;13688;53.154;18.136;2023-07-13T22:23:47;100850.86;;;18.02;76.31
25869;BME280;13688;53.154;18.136;2023-07-13T22:29:21;100845.80;;;17.73;78.84
25869;BME280;13688;53.154;18.136;2023-07-13T22:34:45;100850.48;;;17.63;80.80
25869;BME280;13688;53.154;18.136;2023-07-13T22:40:13;100841.84;;;17.68;81.57
25869;BME280;13688;53.154;18.136;2023-07-13T22:45:35;100837.21;;;17.60;83.11
25869;BME280;13688;53.154;18.136;2023-07-13T22:50:59;100839.55;;;17.55;84.84
25869;BME280;13688;53.154;18.136;2023-07-13T22:56:30;100842.94;;;17.49;86.15
25869;BME280;13688;53.154;18.136;2023-07-13T23:01:53;100841.86;;;17.42;87.61
25869;BME280;13688;53.154;18.136;2023-07-13T23:07:16;100839.09;;;17.34;88.69
25869;BME280;13688;53.154;18.136;2023-07-13T23:12:38;100841.75;;;17.26;89.64
25869;BME280;13688;53.154;18.136;2023-07-13T23:18:01;100847.84;;;17.20;90.23
25869;BME280;13688;53.154;18.136;2023-07-13T23:23:25;100856.55;;;17.05;91.68
25869;BME280;13688;53.154;18.136;2023-07-13T23:28:50;100864.33;;;17.00;92.88
25869;BME280;13688;53.154;18.136;2023-07-13T23:34:15;100866.98;;;16.92;93.13
25869;BME280;13688;53.154;18.136;2023-07-13T23:39:40;100871.80;;;16.80;94.14
25869;BME280;13688;53.154;18.136;2023-07-13T23:45:02;100885.67;;;16.77;95.27
25869;BME280;13688;53.154;18.136;2023-07-13T23:50:29;100890.45;;;16.66;96.95
25869;BME280;13688;53.154;18.136;2023-07-13T23:55:53;100887.97;;;16.54;98.86
